Time;durP1;ratioP1;P1;durP2;ratioP2;P2;SDS_P1;SDS_P2;PMS_P1;PMS_P2;Temp;Humidity;BMP_temperature;BMP_pressure;BME280_temperature;BME280_humidity;BME280_pressure;Samples;Min_cycle;Max_cycle;Signal;HPM_P1;HPM_P2
2022/01/19 00:00:40;;;;;;;8.33;4.00;;;4.50;58.20;;;;;;5100313;28;20207;-72
2022/01/19 00:03:08;;;;;;;9.17;3.80;;;4.50;58.20;;;;;;5103225;28;20517;-72
2022/01/19 00:05:37;;;;;;;7.03;3.43;;;4.50;58.30;;;;;;5104275;28;20201;-72
2022/01/19 00:08:05;;;;;;;8.87;3.60;;;4.40;58.20;;;;;;5104061;28;20201;-72
2022/01/19 00:10:34;;;;;;;11.23;3.33;;;4.40;58.40;;;;;;5099066;28;20255;-72
2022/01/19 00:13:02;;;;;;;8.53;3.80;;;4.40;58.40;;;;;;5100589;28;20196;-73
2022/01/19 00:15:31;;;;;;;7.57;4.20;;;4.40;58.30;;;;;;5103616;28;20693;-73
2022/01/19 00:18:00;;;;;;;9.13;3.73;;;4.30;58.40;;;;;;5102573;28;20655;-73
2022/01/19 00:20:31;;;;;;;7.70;3.50;;;4.30;58.50;;;;;;5098839;28;20191;-73
2022/01/19 00:23:01;;;;;;;6.03;3.47;;;4.30;58.50;;;;;;5099545;28;20686;-73
2022/01/19 00:25:30;;;;;;;7.57;3.17;;;4.30;58.40;;;;;;5102882;28;20673;-72
2022/01/19 00:27:58;;;;;;;9.07;3.10;;;4.30;58.40;;;;;;5102105;28;20197;-72
2022/01/19 00:30:27;;;;;;;8.77;3.37;;;4.30;58.40;;;;;;5101868;28;20192;-72
2022/01/19 00:32:55;;;;;;;5.83;3.27;;;4.30;58.30;;;;;;5094210;28;20227;-73
2022/01/19 00:35:25;;;;;;;5.07;2.73;;;4.30;58.20;;;;;;5100639;28;20274;-73
2022/01/19 00:37:54;;;;;;;5.40;2.67;;;4.30;58.20;;;;;;5100783;28;20208;-73
2022/01/19 00:40:22;;;;;;;5.50;3.00;;;4.30;58.20;;;;;;5099305;28;20659;-73
2022/01/19 00:42:51;;;;;;;4.93;2.87;;;4.30;58.20;;;;;;5093150;28;20870;-73
2022/01/19 00:45:21;;;;;;;8.47;3.47;;;4.30;58.20;;;;;;5106285;28;20551;-73
2022/01/19 00:47:49;;;;;;;9.32;3.90;;;4.30;58.30;;;;;;5103486;28;20783;-72
2022/01/19 00:50:24;;;;;;;7.40;3.13;;;4.30;58.50;;;;;;5100199;28;20198;-72
2022/01/19 00:52:54;;;;;;;7.60;3.40;;;4.20;58.50;;;;;;5103534;28;20234;-73
2022/01/19 00:55:24;;;;;;;8.40;3.53;;;4.20;58.40;;;;;;5098109;28;20217;-73
2022/01/19 00:57:53;;;;;;;9.27;3.20;;;4.20;58.60;;;;;;5101791;28;20396;-72
2022/01/19 01:00:22;;;;;;;8.37;3.63;;;4.10;58.60;;;;;;5104569;28;20526;-73
2022/01/19 01:02:51;;;;;;;9.13;4.20;;;4.10;58.60;;;;;;5098925;28;20370;-73
2022/01/19 01:05:20;;;;;;;8.00;3.53;;;4.10;58.60;;;;;;5099688;28;20189;-73
2022/01/19 01:07:48;;;;;;;6.37;3.30;;;4.10;58.50;;;;;;5094731;28;20200;-73
2022/01/19 01:10:20;;;;;;;7.73;3.43;;;4.10;58.50;;;;;;5102913;28;20191;-73
2022/01/19 01:12:51;;;;;;;6.07;3.23;;;4.10;58.50;;;;;;5097564;28;20181;-73
2022/01/19 01:15:30;;;;;;;8.13;3.20;;;4.10;58.50;;;;;;5100606;28;20296;-72
2022/01/19 01:18:20;;;;;;;8.47;3.37;;;4.10;58.50;;;;;;5101801;28;20187;-73
2022/01/19 01:20:51;;;;;;;9.90;4.00;;;4.10;58.50;;;;;;5099829;28;20440;-73
2022/01/19 01:23:21;;;;;;;6.23;3.60;;;4.10;58.80;;;;;;5098715;28;20205;-73
2022/01/19 01:25:51;;;;;;;6.20;3.10;;;4.10;58.80;;;;;;5093948;28;20566;-73
2022/01/19 01:28:20;;;;;;;6.87;3.77;;;4.10;58.70;;;;;;5096148;28;20199;-73
2022/01/19 01:30:50;;;;;;;7.90;3.57;;;4.00;58.70;;;;;;5101275;28;20212;-73
2022/01/19 01:33:19;;;;;;;7.47;3.50;;;4.10;58.70;;;;;;5093528;28;20230;-74
2022/01/19 01:35:48;;;;;;;9.70;3.47;;;4.10;58.70;;;;;;5086326;28;20251;-73
2022/01/19 01:38:16;;;;;;;8.37;3.60;;;4.00;58.60;;;;;;5081939;28;20192;-73
2022/01/19 01:41:08;;;;;;;7.20;3.50;;;4.00;58.70;;;;;;5075766;28;20196;-73
2022/01/19 01:43:41;;;;;;;6.95;3.75;;;4.00;58.70;;;;;;5074157;28;20442;-73
2022/01/19 01:46:19;;;;;;;6.97;3.37;;;4.00;58.90;;;;;;5077283;28;20200;-73
2022/01/19 01:48:47;;;;;;;8.40;3.10;;;4.00;59.00;;;;;;5077392;28;20186;-73
2022/01/19 01:54:02;;;;;;;5.97;3.33;;;3.90;58.80;;;;;;5080555;28;20198;-73
2022/01/19 01:56:32;;;;;;;11.27;3.80;;;3.90;58.80;;;;;;5080781;28;20225;-73
2022/01/19 01:59:00;;;;;;;6.07;3.60;;;3.90;58.80;;;;;;5077947;28;20250;-73
2022/01/19 02:01:28;;;;;;;6.90;4.00;;;3.90;58.80;;;;;;5081228;28;20242;-73
2022/01/19 02:03:58;;;;;;;6.00;3.20;;;3.90;58.80;;;;;;5078429;28;20289;-73
2022/01/19 02:06:41;;;;;;;7.07;3.67;;;3.90;58.90;;;;;;5075860;28;20189;-73
2022/01/19 02:09:13;;;;;;;5.60;3.40;;;3.90;59.00;;;;;;5075412;28;20654;-73
2022/01/19 02:23:12;;;;;;;7.30;3.50;;;3.70;59.30;;;;;;5074526;28;20183;-73
2022/01/19 02:25:43;;;;;;;6.23;3.27;;;3.70;59.40;;;;;;5079402;28;20823;-73
2022/01/19 02:40:06;;;;;;;7.43;3.20;;;3.60;59.60;;;;;;5076890;28;20226;-73
2022/01/19 02:42:34;;;;;;;6.43;3.57;;;3.50;60.40;;;;;;5075396;28;20203;-73
2022/01/19 02:50:34;;;;;;;6.30;3.40;;;3.50;60.00;;;;;;5078864;28;20187;-73
2022/01/19 02:53:04;;;;;;;5.33;3.17;;;3.50;59.90;;;;;;5080587;28;20194;-73
2022/01/19 02:55:35;;;;;;;7.57;3.10;;;3.50;59.90;;;;;;5075374;28;20966;-73
2022/01/19 02:58:03;;;;;;;8.10;3.67;;;3.50;60.00;;;;;;5079162;28;20417;-73
2022/01/19 03:08:53;;;;;;;7.50;3.60;;;3.50;60.00;;;;;;5085269;28;20899;-73
2022/01/19 03:11:23;;;;;;;7.67;3.27;;;3.50;59.80;;;;;;5079414;28;20194;-73
2022/01/19 03:13:52;;;;;;;9.20;3.40;;;3.50;59.80;;;;;;5083265;28;20198;-73
2022/01/19 03:16:21;;;;;;;8.53;3.80;;;3.50;59.70;;;;;;5084795;28;20224;-74
2022/01/19 03:18:50;;;;;;;12.87;4.10;;;3.50;59.60;;;;;;5082309;28;20882;-74
2022/01/19 03:21:19;;;;;;;9.13;3.60;;;3.50;59.60;;;;;;5086032;28;20187;-74
2022/01/19 03:23:47;;;;;;;7.87;3.60;;;3.50;59.60;;;;;;5084759;28;20249;-74
2022/01/19 03:26:17;;;;;;;8.50;4.10;;;3.50;59.60;;;;;;5083174;28;20227;-74
2022/01/19 03:28:45;;;;;;;12.87;4.47;;;3.50;59.60;;;;;;5083996;28;20254;-74
2022/01/19 03:31:13;;;;;;;8.63;4.70;;;3.50;59.60;;;;;;5087159;28;20186;-74
2022/01/19 03:33:42;;;;;;;9.93;5.10;;;3.50;59.70;;;;;;5080277;28;20251;-74
2022/01/19 03:36:10;;;;;;;10.60;4.50;;;3.50;59.80;;;;;;5085855;28;20222;-75
2022/01/19 03:38:38;;;;;;;7.57;4.10;;;3.50;59.80;;;;;;5084612;28;20202;-74
2022/01/19 03:41:07;;;;;;;14.73;3.77;;;3.50;59.90;;;;;;5085169;28;20319;-74
2022/01/19 03:43:37;;;;;;;10.90;5.00;;;3.40;60.00;;;;;;5083863;28;20199;-74
2022/01/19 03:46:13;;;;;;;8.70;4.40;;;3.40;60.10;;;;;;5080579;28;20194;-74
2022/01/19 03:48:52;;;;;;;10.67;4.30;;;3.30;60.20;;;;;;5074115;28;20191;-75
2022/01/19 03:51:21;;;;;;;12.73;5.17;;;3.30;60.30;;;;;;5077215;28;20208;-74
2022/01/19 03:53:50;;;;;;;12.70;4.83;;;3.20;60.50;;;;;;5087522;28;20194;-75
2022/01/19 03:56:19;;;;;;;20.67;11.20;;;3.20;60.40;;;;;;5085517;28;20203;-74
2022/01/19 03:58:49;;;;;;;20.17;12.10;;;3.20;60.50;;;;;;5078981;28;20274;-74
2022/01/19 04:01:17;;;;;;;23.07;9.83;;;3.10;60.50;;;;;;5081665;28;20194;-74
2022/01/19 04:06:54;;;;;;;10.33;4.57;;;3.10;60.50;;;;;;5062327;28;20193;-74
2022/01/19 04:09:23;;;;;;;13.70;5.13;;;3.10;60.50;;;;;;5084864;28;20205;-74
2022/01/19 04:11:52;;;;;;;8.90;3.73;;;3.10;60.50;;;;;;5085013;28;20190;-74
2022/01/19 04:14:26;;;;;;;8.90;4.40;;;3.10;60.50;;;;;;5085671;28;20199;-74
2022/01/19 04:16:56;;;;;;;12.53;4.93;;;3.10;60.50;;;;;;5074182;28;20214;-74
2022/01/19 04:19:31;;;;;;;8.60;4.63;;;3.10;60.50;;;;;;5084372;28;20197;-74
2022/01/19 04:22:02;;;;;;;12.47;4.90;;;3.10;60.80;;;;;;5082444;28;20204;-74
2022/01/19 04:24:30;;;;;;;9.63;4.70;;;3.10;60.70;;;;;;5083258;28;20188;-74
2022/01/19 04:29:53;;;;;;;12.00;5.03;;;3.10;60.80;;;;;;5079740;28;20187;-73
2022/01/19 04:32:27;;;;;;;9.27;4.53;;;3.10;60.80;;;;;;5076969;28;20193;-74
2022/01/19 04:34:55;;;;;;;7.60;4.60;;;3.00;60.70;;;;;;5081099;28;20318;-73
2022/01/19 04:37:41;;;;;;;15.30;4.70;;;3.00;60.70;;;;;;5083466;28;20198;-74
2022/01/19 04:46:08;;;;;;;18.20;6.60;;;3.10;60.90;;;;;;5084282;28;20235;-74
2022/01/19 04:54:40;;;;;;;27.93;9.67;;;3.00;60.80;;;;;;5015372;28;20198;-73
2022/01/19 05:05:30;;;;;;;19.70;7.07;;;2.90;61.40;;;;;;5071094;28;20193;-74
2022/01/19 05:08:05;;;;;;;23.93;6.90;;;2.90;61.90;;;;;;5080172;28;20196;-73
2022/01/19 05:13:30;;;;;;;12.90;5.37;;;2.90;61.90;;;;;;5079509;28;20194;-73
2022/01/19 05:15:58;;;;;;;14.47;5.63;;;2.90;62.00;;;;;;5082116;28;20205;-73
2022/01/19 05:18:28;;;;;;;16.93;5.77;;;2.80;61.80;;;;;;5080856;28;20217;-74
2022/01/19 05:20:57;;;;;;;13.37;5.57;;;2.80;62.50;;;;;;5071064;28;20741;-74
2022/01/19 05:23:25;;;;;;;16.50;6.17;;;2.80;61.80;;;;;;5080739;28;20197;-73
2022/01/19 05:25:53;;;;;;;14.00;5.50;;;2.80;62.50;;;;;;5074324;28;20194;-73
2022/01/19 05:28:24;;;;;;;11.93;5.90;;;2.90;61.90;;;;;;5077387;28;20204;-73
2022/01/19 05:30:53;;;;;;;19.80;5.63;;;2.90;62.00;;;;;;5080634;28;20195;-73
2022/01/19 05:33:21;;;;;;;18.80;6.07;;;2.80;61.90;;;;;;5078804;28;20186;-73
2022/01/19 05:35:51;;;;;;;36.97;10.43;;;2.90;62.20;;;;;;5083423;28;20229;-73
2022/01/19 05:38:20;;;;;;;26.23;8.90;;;2.80;63.10;;;;;;5079841;28;20223;-73
2022/01/19 05:40:48;;;;;;;20.83;7.83;;;2.80;62.40;;;;;;5078518;28;20187;-74
2022/01/19 05:43:17;;;;;;;17.80;7.13;;;2.80;62.30;;;;;;5080093;28;20205;-73
2022/01/19 05:45:45;;;;;;;20.10;6.97;;;2.80;62.50;;;;;;5083113;28;20205;-73
2022/01/19 05:48:13;;;;;;;11.17;5.97;;;2.80;62.50;;;;;;5075957;28;20201;-73
2022/01/19 05:50:42;;;;;;;17.77;6.10;;;2.80;62.40;;;;;;5079649;28;20204;-73
2022/01/19 05:53:13;;;;;;;17.50;6.77;;;2.80;62.40;;;;;;5079488;28;20728;-74
2022/01/19 05:55:41;;;;;;;14.80;6.37;;;2.70;62.40;;;;;;5079243;28;20192;-73
2022/01/19 05:58:09;;;;;;;23.42;6.88;;;2.80;62.40;;;;;;5079198;28;20119;-73
2022/01/19 06:00:38;;;;;;;17.27;5.73;;;2.80;62.40;;;;;;5080904;28;20199;-74
2022/01/19 06:03:06;;;;;;;15.60;5.77;;;2.80;62.50;;;;;;5079954;28;20190;-73
2022/01/19 06:05:35;;;;;;;17.33;7.07;;;2.80;62.70;;;;;;5083942;28;20210;-73
2022/01/19 06:08:17;;;;;;;25.67;7.43;;;2.80;63.00;;;;;;5083235;28;20198;-73
2022/01/19 06:10:48;;;;;;;17.87;7.17;;;2.80;62.80;;;;;;5080555;28;20181;-74
2022/01/19 06:13:18;;;;;;;26.17;8.17;;;2.80;62.80;;;;;;5082577;28;20197;-73
2022/01/19 06:15:46;;;;;;;21.00;7.20;;;2.80;63.00;;;;;;5082428;28;20191;-73
2022/01/19 06:18:16;;;;;;;20.47;9.70;;;2.80;63.30;;;;;;5074466;28;20221;-73
2022/01/19 06:20:45;;;;;;;23.87;9.53;;;2.80;63.70;;;;;;5081768;28;20202;-73
2022/01/19 06:23:14;;;;;;;32.90;9.27;;;2.70;63.60;;;;;;5082318;28;20194;-74
2022/01/19 06:25:42;;;;;;;30.53;8.87;;;2.70;63.50;;;;;;5078213;28;20196;-73
2022/01/19 06:28:12;;;;;;;23.07;8.53;;;2.70;63.50;;;;;;5077948;28;20191;-74
2022/01/19 06:30:40;;;;;;;24.77;8.90;;;2.70;63.60;;;;;;5080931;28;20208;-73
2022/01/19 06:33:09;;;;;;;27.43;9.80;;;2.70;63.50;;;;;;5083320;28;20585;-74
2022/01/19 06:35:40;;;;;;;13.87;6.20;;;2.80;63.50;;;;;;5083453;28;20209;-73
2022/01/19 06:38:08;;;;;;;19.50;7.63;;;2.70;63.60;;;;;;5082758;28;20223;-74
2022/01/19 06:40:37;;;;;;;16.27;7.47;;;2.70;63.60;;;;;;5079770;28;20199;-73
2022/01/19 06:43:05;;;;;;;17.80;7.93;;;2.70;63.60;;;;;;5080913;28;20189;-73
2022/01/19 06:45:35;;;;;;;21.70;7.83;;;2.70;63.60;;;;;;5080054;28;20194;-74
2022/01/19 06:48:03;;;;;;;26.27;8.10;;;2.80;63.70;;;;;;5088569;28;20194;-73
2022/01/19 06:50:32;;;;;;;17.93;8.90;;;2.80;63.80;;;;;;5084095;28;20201;-75
2022/01/19 06:53:00;;;;;;;22.37;8.40;;;2.80;63.90;;;;;;5087060;28;20743;-74
2022/01/19 06:55:31;;;;;;;21.80;7.77;;;2.80;63.90;;;;;;5086735;28;20194;-73
2022/01/19 06:58:00;;;;;;;26.17;8.17;;;2.90;64.00;;;;;;5084540;28;20219;-74
2022/01/19 07:00:28;;;;;;;17.80;7.70;;;2.90;64.20;;;;;;5086776;28;20194;-73
2022/01/19 07:02:58;;;;;;;15.27;7.23;;;2.90;64.20;;;;;;5088032;28;20238;-74
2022/01/19 07:05:27;;;;;;;19.73;8.13;;;3.00;64.20;;;;;;5087949;28;20194;-74
2022/01/19 07:07:57;;;;;;;16.73;7.30;;;3.10;64.40;;;;;;5085707;28;20624;-76
2022/01/19 07:10:31;;;;;;;16.20;7.10;;;3.10;64.40;;;;;;5083697;28;20185;-75
2022/01/19 07:12:59;;;;;;;15.27;6.80;;;3.10;64.30;;;;;;5080362;28;20179;-75
2022/01/19 07:15:28;;;;;;;19.43;7.20;;;3.20;64.40;;;;;;5086504;28;20186;-75
2022/01/19 07:17:58;;;;;;;17.63;8.33;;;3.30;64.40;;;;;;5077937;28;20222;-77
2022/01/19 07:20:27;;;;;;;17.60;7.50;;;3.30;64.40;;;;;;5083801;28;20520;-75
2022/01/19 07:22:56;;;;;;;18.27;7.43;;;3.40;64.10;;;;;;5087371;28;20190;-75
2022/01/19 07:25:24;;;;;;;13.80;7.63;;;3.50;64.20;;;;;;5086698;28;20208;-75
2022/01/19 07:27:53;;;;;;;18.50;8.07;;;3.50;64.10;;;;;;5086011;28;20189;-75
2022/01/19 07:30:21;;;;;;;15.47;8.43;;;3.50;63.60;;;;;;5076927;28;20188;-76
2022/01/19 07:32:51;;;;;;;17.57;8.60;;;3.50;63.60;;;;;;5078609;28;20199;-75
2022/01/19 07:35:21;;;;;;;15.13;8.07;;;3.60;63.60;;;;;;5081477;28;20228;-75
2022/01/19 07:37:49;;;;;;;17.40;6.93;;;3.60;63.50;;;;;;5085509;28;20219;-75
2022/01/19 07:40:17;;;;;;;15.83;6.50;;;3.60;63.70;;;;;;5085639;28;20192;-76
2022/01/19 07:42:46;;;;;;;12.50;6.83;;;3.70;63.60;;;;;;5086508;28;20429;-75
2022/01/19 07:45:15;;;;;;;11.53;4.87;;;3.70;63.50;;;;;;5081733;28;20468;-75
2022/01/19 07:47:43;;;;;;;8.37;4.83;;;3.80;63.40;;;;;;5085761;28;20327;-75
2022/01/19 07:50:11;;;;;;;10.80;5.00;;;3.90;63.10;;;;;;5077143;28;20208;-75
2022/01/19 07:52:41;;;;;;;13.90;5.10;;;3.90;62.70;;;;;;5083937;28;20641;-75
2022/01/19 07:55:10;;;;;;;12.87;5.83;;;3.90;62.50;;;;;;5077967;28;20182;-76
2022/01/19 07:57:40;;;;;;;17.00;6.80;;;4.00;62.70;;;;;;5085365;28;20186;-75
2022/01/19 08:00:09;;;;;;;18.17;5.67;;;4.10;62.90;;;;;;5085172;28;20198;-76
2022/01/19 08:02:38;;;;;;;17.10;6.80;;;4.20;63.00;;;;;;5078507;28;20189;-75
2022/01/19 08:05:07;;;;;;;14.75;6.85;;;4.20;62.80;;;;;;5077240;28;21180;-75
2022/01/19 08:07:36;;;;;;;16.07;7.27;;;4.30;63.00;;;;;;5087465;28;20186;-75
2022/01/19 08:10:07;;;;;;;22.97;7.67;;;4.30;62.50;;;;;;5078360;28;20195;-76
2022/01/19 08:12:36;;;;;;;13.17;6.90;;;4.40;62.60;;;;;;5085879;28;20185;-75
2022/01/19 08:15:05;;;;;;;10.83;5.27;;;4.50;62.50;;;;;;5086699;28;20196;-75
2022/01/19 08:17:34;;;;;;;8.93;4.93;;;4.50;62.70;;;;;;5085890;28;20284;-75
2022/01/19 08:20:02;;;;;;;11.33;5.27;;;4.60;62.80;;;;;;5087588;28;20218;-75
2022/01/19 08:22:31;;;;;;;13.60;5.43;;;4.70;63.10;;;;;;5083676;28;20198;-74
2022/01/19 08:24:59;;;;;;;12.93;5.77;;;4.70;63.20;;;;;;5086680;28;20197;-75
2022/01/19 08:27:29;;;;;;;13.50;4.90;;;4.80;63.40;;;;;;5077084;28;20677;-74
2022/01/19 08:29:59;;;;;;;11.10;5.03;;;4.80;63.20;;;;;;5085789;28;20202;-74
2022/01/19 08:32:29;;;;;;;9.47;5.03;;;4.90;63.10;;;;;;5083598;28;20789;-73
2022/01/19 08:35:00;;;;;;;8.40;4.40;;;5.00;62.90;;;;;;5085910;28;20221;-73
2022/01/19 08:37:29;;;;;;;12.37;5.37;;;5.10;62.70;;;;;;5084983;28;20195;-74
2022/01/19 08:39:57;;;;;;;11.32;5.10;;;5.10;62.20;;;;;;5082303;28;20476;-73
2022/01/19 08:42:26;;;;;;;8.67;4.57;;;5.20;62.00;;;;;;5084175;28;20201;-74
2022/01/19 08:44:56;;;;;;;8.57;4.10;;;5.20;61.90;;;;;;5078527;28;20544;-74
2022/01/19 08:47:25;;;;;;;8.33;4.37;;;5.30;61.80;;;;;;5076908;28;20298;-75
2022/01/19 08:50:15;;;;;;;9.00;4.63;;;5.30;61.60;;;;;;5085520;28;20225;-73
2022/01/19 08:52:45;;;;;;;10.60;4.82;;;5.40;61.10;;;;;;5082821;28;20829;-75
2022/01/19 08:55:15;;;;;;;8.97;4.57;;;5.40;61.30;;;;;;5076361;28;20184;-74
2022/01/19 08:57:45;;;;;;;12.27;4.53;;;5.50;61.20;;;;;;5084478;28;20190;-74
2022/01/19 09:00:18;;;;;;;8.30;4.83;;;5.60;61.00;;;;;;5084517;28;20214;-74
2022/01/19 09:02:46;;;;;;;10.40;5.13;;;5.60;60.50;;;;;;5083510;28;20198;-74
2022/01/19 09:05:15;;;;;;;9.57;4.60;;;5.60;59.70;;;;;;5077845;28;20189;-74
2022/01/19 09:07:44;;;;;;;9.47;4.33;;;5.70;59.80;;;;;;5083846;28;20277;-74
2022/01/19 09:10:14;;;;;;;9.83;4.50;;;5.70;59.20;;;;;;5076465;28;20194;-75
2022/01/19 09:12:43;;;;;;;6.73;3.93;;;5.80;58.80;;;;;;5076385;28;20588;-75
2022/01/19 09:15:12;;;;;;;10.20;4.77;;;5.80;58.60;;;;;;5075270;28;20441;-75
2022/01/19 09:17:42;;;;;;;7.43;4.03;;;5.90;59.00;;;;;;5082177;28;20186;-75
2022/01/19 09:20:12;;;;;;;12.63;4.37;;;5.90;59.10;;;;;;5078985;28;20214;-75
2022/01/19 09:22:41;;;;;;;7.23;3.47;;;6.00;58.80;;;;;;5082198;28;20195;-74
2022/01/19 09:25:12;;;;;;;9.07;3.93;;;6.00;58.20;;;;;;5084430;28;20560;-74
2022/01/19 09:27:41;;;;;;;9.33;3.73;;;6.10;57.90;;;;;;5084187;28;20265;-74
2022/01/19 09:30:13;;;;;;;9.83;3.63;;;6.10;57.10;;;;;;5083467;28;20196;-74
2022/01/19 09:32:44;;;;;;;10.33;2.87;;;6.20;57.60;;;;;;5083157;28;20187;-74
2022/01/19 09:35:22;;;;;;;5.27;3.10;;;6.20;56.90;;;;;;5082653;28;20925;-73
2022/01/19 09:37:51;;;;;;;5.00;2.80;;;6.20;55.40;;;;;;5081026;28;20496;-75
2022/01/19 09:40:40;;;;;;;4.83;2.43;;;6.30;55.50;;;;;;5082092;28;20270;-74
2022/01/19 09:43:10;;;;;;;4.50;2.70;;;6.30;54.70;;;;;;5074828;28;20189;-74
2022/01/19 09:45:44;;;;;;;10.93;3.00;;;6.40;54.50;;;;;;5083587;28;20240;-76
2022/01/19 09:48:13;;;;;;;6.40;2.30;;;6.40;54.80;;;;;;5075309;28;20196;-74
2022/01/19 09:50:42;;;;;;;4.37;2.10;;;6.50;54.80;;;;;;5081492;28;20220;-75
2022/01/19 09:53:10;;;;;;;5.03;2.77;;;6.50;54.60;;;;;;5082235;28;20212;-74
2022/01/19 09:55:40;;;;;;;5.13;2.63;;;6.60;54.00;;;;;;5082794;28;20632;-76
2022/01/19 09:58:10;;;;;;;4.00;2.23;;;6.60;54.30;;;;;;5082020;28;20181;-74
2022/01/19 10:00:39;;;;;;;8.27;2.73;;;6.60;54.10;;;;;;5083226;28;20228;-76
2022/01/19 10:03:20;;;;;;;5.07;2.47;;;6.60;53.70;;;;;;5081031;28;20229;-75
2022/01/19 10:06:02;;;;;;;4.20;2.57;;;6.70;53.90;;;;;;5079985;28;20634;-74
2022/01/19 10:08:34;;;;;;;6.57;2.90;;;6.70;54.00;;;;;;5077847;28;20184;-74
2022/01/19 10:11:18;;;;;;;6.67;2.70;;;6.80;54.20;;;;;;5082668;28;20271;-74
2022/01/19 10:19:24;;;;;;;5.73;2.80;;;6.80;52.60;;;;;;5080167;28;20199;-75
2022/01/19 10:22:07;;;;;;;5.60;2.90;;;6.90;52.60;;;;;;5079093;28;20180;-74
2022/01/19 10:24:50;;;;;;;4.07;2.27;;;6.90;52.10;;;;;;5082430;28;20192;-74
2022/01/19 10:27:24;;;;;;;4.53;2.33;;;6.90;52.40;;;;;;5080059;28;21911;-75
2022/01/19 10:29:56;;;;;;;6.40;3.13;;;7.00;52.60;;;;;;5080463;28;20655;-75
2022/01/19 10:32:26;;;;;;;4.43;3.07;;;7.00;52.60;;;;;;5082910;28;20200;-74
2022/01/19 10:34:58;;;;;;;5.47;2.57;;;7.10;52.80;;;;;;5082576;28;20265;-75
2022/01/19 10:37:28;;;;;;;9.17;2.37;;;7.10;52.50;;;;;;5077641;28;20195;-76
2022/01/19 10:40:00;;;;;;;7.30;3.03;;;7.10;52.00;;;;;;5077379;28;20304;-75
2022/01/19 10:42:31;;;;;;;4.70;2.67;;;7.20;52.00;;;;;;5086517;28;20204;-77
2022/01/19 10:45:01;;;;;;;6.80;2.80;;;7.20;51.90;;;;;;5085835;28;20199;-77
2022/01/19 10:47:41;;;;;;;5.90;2.73;;;7.30;51.70;;;;;;5083108;28;20747;-78
2022/01/19 10:50:12;;;;;;;5.57;2.40;;;7.30;52.00;;;;;;5084045;28;20189;-78
2022/01/19 10:52:43;;;;;;;7.03;3.23;;;7.30;52.00;;;;;;5074580;28;20178;-76
2022/01/19 10:55:13;;;;;;;6.63;3.03;;;7.40;51.80;;;;;;5081900;28;20923;-75
2022/01/19 10:57:43;;;;;;;4.80;3.10;;;7.40;51.80;;;;;;5079592;28;20204;-75
2022/01/19 11:00:14;;;;;;;9.50;3.57;;;7.50;51.60;;;;;;5080589;28;20212;-76
2022/01/19 11:02:43;;;;;;;9.07;3.37;;;7.50;51.50;;;;;;5081514;28;20181;-76
2022/01/19 11:05:13;;;;;;;9.47;3.53;;;7.60;51.30;;;;;;5079881;28;20181;-78
2022/01/19 11:07:41;;;;;;;7.60;2.50;;;7.60;51.50;;;;;;5080505;28;20194;-77
2022/01/19 11:10:13;;;;;;;7.03;3.00;;;7.70;51.20;;;;;;5083338;28;20221;-77
2022/01/19 11:12:47;;;;;;;7.13;3.43;;;7.70;50.90;;;;;;5085506;28;20185;-77
2022/01/19 11:15:18;;;;;;;10.87;3.07;;;7.80;50.40;;;;;;5082705;28;20194;-77
2022/01/19 11:17:47;;;;;;;13.23;3.67;;;7.80;51.20;;;;;;5081988;28;20201;-77
2022/01/19 11:20:19;;;;;;;7.33;3.43;;;7.90;51.20;;;;;;5079065;28;20231;-77
2022/01/19 11:23:07;;;;;;;9.13;3.40;;;8.00;51.30;;;;;;5073030;28;20202;-77
2022/01/19 11:25:49;;;;;;;5.77;2.70;;;8.10;51.30;;;;;;5082563;28;20182;-74
2022/01/19 11:28:32;;;;;;;6.55;2.83;;;8.10;50.70;;;;;;5083984;28;20426;-76
2022/01/19 11:31:02;;;;;;;5.40;3.10;;;8.10;50.40;;;;;;5081242;28;20193;-76
2022/01/19 11:33:32;;;;;;;6.93;2.77;;;8.20;50.50;;;;;;5085540;28;20180;-76
2022/01/19 11:36:04;;;;;;;6.67;2.90;;;8.10;49.90;;;;;;5085296;28;20633;-76
2022/01/19 11:38:42;;;;;;;7.47;3.37;;;8.10;49.90;;;;;;5082259;28;20788;-75
2022/01/19 11:41:40;;;;;;;7.90;3.33;;;8.20;50.20;;;;;;5084117;28;20221;-74
2022/01/19 11:44:11;;;;;;;7.37;3.07;;;8.10;50.90;;;;;;5083276;28;20541;-74
2022/01/19 11:46:43;;;;;;;6.63;2.97;;;8.20;50.20;;;;;;5085525;28;20186;-74
2022/01/19 11:49:14;;;;;;;7.03;2.70;;;8.20;50.10;;;;;;5086835;28;20244;-75
2022/01/19 11:51:47;;;;;;;6.17;2.87;;;8.20;49.30;;;;;;5084979;28;20788;-74
2022/01/19 11:54:19;;;;;;;4.60;2.30;;;8.20;49.30;;;;;;5083722;28;20269;-75
2022/01/19 11:57:06;;;;;;;9.33;3.00;;;8.30;49.40;;;;;;5081730;28;20186;-74
2022/01/19 12:00:18;;;;;;;7.67;3.37;;;8.30;49.50;;;;;;5085686;28;20626;-75
2022/01/19 12:02:52;;;;;;;7.10;3.40;;;8.30;49.80;;;;;;5085287;28;20193;-75
2022/01/19 12:05:42;;;;;;;7.93;3.10;;;8.40;50.10;;;;;;5083656;28;20194;-74
2022/01/19 12:08:30;;;;;;;10.20;3.87;;;8.40;50.50;;;;;;5082894;28;20675;-74
2022/01/19 12:11:12;;;;;;;7.27;2.93;;;8.50;50.40;;;;;;5087814;28;20801;-75
2022/01/19 12:13:56;;;;;;;6.63;3.30;;;8.50;50.20;;;;;;5086023;28;20766;-74
2022/01/19 12:19:20;;;;;;;8.27;3.47;;;8.70;50.50;;;;;;5067259;28;20730;-74
2022/01/19 12:21:53;;;;;;;9.67;3.80;;;8.70;50.30;;;;;;5068380;28;20209;-74
2022/01/19 12:24:37;;;;;;;9.83;3.37;;;8.70;50.40;;;;;;5085057;28;20714;-74
2022/01/19 12:27:10;;;;;;;11.63;4.77;;;8.80;50.50;;;;;;5071622;28;20193;-73
2022/01/19 12:29:51;;;;;;;8.40;3.50;;;8.80;50.30;;;;;;5084845;28;20185;-75
2022/01/19 12:32:41;;;;;;;6.17;3.00;;;8.80;49.80;;;;;;5086254;28;20690;-73
2022/01/19 12:35:35;;;;;;;7.00;2.93;;;8.90;50.20;;;;;;5081007;28;20218;-74
2022/01/19 12:38:19;;;;;;;7.30;3.10;;;9.00;49.80;;;;;;5081870;28;20186;-74
2022/01/19 12:40:56;;;;;;;8.00;2.80;;;8.90;48.70;;;;;;5083744;28;20205;-74
2022/01/19 12:43:36;;;;;;;4.33;2.57;;;9.00;49.40;;;;;;5086463;28;20455;-74
2022/01/19 12:46:08;;;;;;;4.77;2.70;;;9.10;49.60;;;;;;5082227;28;20198;-75
2022/01/19 12:48:46;;;;;;;9.43;3.47;;;9.10;49.70;;;;;;5076304;28;20236;-74
2022/01/19 12:51:38;;;;;;;7.33;3.43;;;9.10;48.80;;;;;;5084547;28;20178;-75
2022/01/19 12:54:08;;;;;;;7.60;3.23;;;9.20;49.20;;;;;;5081215;28;20190;-74
2022/01/19 12:57:02;;;;;;;6.47;3.10;;;9.30;48.90;;;;;;5081171;28;20268;-74
2022/01/19 12:59:33;;;;;;;5.90;3.30;;;9.30;49.10;;;;;;5085510;28;20190;-74
2022/01/19 13:02:03;;;;;;;9.77;3.97;;;9.30;48.70;;;;;;5085067;28;20201;-74
2022/01/19 13:04:34;;;;;;;8.33;3.80;;;9.30;48.70;;;;;;5082526;28;20268;-73
2022/01/19 13:07:19;;;;;;;11.30;3.73;;;9.30;48.70;;;;;;5083470;28;20639;-74
2022/01/19 13:10:10;;;;;;;7.37;3.40;;;9.40;48.90;;;;;;5083428;28;20185;-74
2022/01/19 13:12:45;;;;;;;9.13;3.00;;;9.50;49.50;;;;;;5082312;28;20181;-75
2022/01/19 13:15:15;;;;;;;6.20;2.77;;;9.70;49.20;;;;;;5084828;28;20239;-74
2022/01/19 13:17:45;;;;;;;10.77;3.53;;;9.80;48.90;;;;;;5084377;28;20189;-74
2022/01/19 13:20:17;;;;;;;13.27;2.83;;;10.00;49.20;;;;;;5080024;28;20204;-75
2022/01/19 13:22:47;;;;;;;8.13;3.50;;;10.20;48.90;;;;;;5070323;28;20210;-75
2022/01/19 13:25:21;;;;;;;7.87;3.33;;;10.50;48.30;;;;;;5075029;28;20196;-74
2022/01/19 13:27:54;;;;;;;7.43;2.88;;;10.80;49.00;;;;;;5083731;28;20443;-73
2022/01/19 13:30:24;;;;;;;5.80;2.83;;;11.50;48.50;;;;;;5084220;28;20201;-72
2022/01/19 13:32:53;;;;;;;7.03;3.08;;;12.20;47.30;;;;;;5081922;28;20232;-74
2022/01/19 13:35:22;;;;;;;6.45;2.45;;;12.90;46.50;;;;;;5076989;28;20237;-74
2022/01/19 13:37:55;;;;;;;11.70;2.97;;;13.70;42.80;;;;;;5082041;28;20248;-73
2022/01/19 13:40:25;;;;;;;6.03;2.85;;;14.70;40.60;;;;;;5082696;28;20200;-72
2022/01/19 13:42:59;;;;;;;7.50;2.88;;;15.30;38.80;;;;;;5082003;28;20205;-73
2022/01/19 13:45:36;;;;;;;10.05;3.10;;;17.00;38.10;;;;;;5083209;28;20186;-73
2022/01/19 13:48:20;;;;;;;8.13;3.25;;;19.00;32.60;;;;;;5081624;28;20190;-72
2022/01/19 13:50:50;;;;;;;7.75;2.95;;;18.50;32.90;;;;;;5077803;28;20193;-73
2022/01/19 13:53:26;;;;;;;14.30;3.33;;;19.00;33.70;;;;;;5080122;28;20225;-73
2022/01/19 13:55:55;;;;;;;10.48;3.33;;;20.80;32.50;;;;;;5083673;28;20182;-74
2022/01/19 13:58:32;;;;;;;9.30;3.60;;;22.50;29.80;;;;;;5082962;28;20228;-73
2022/01/19 14:01:03;;;;;;;10.27;3.85;;;23.00;28.40;;;;;;5081975;28;20194;-73
2022/01/19 14:03:46;;;;;;;8.32;2.40;;;23.30;28.70;;;;;;5083743;28;20178;-73
2022/01/19 14:06:21;;;;;;;8.90;3.33;;;23.70;27.60;;;;;;5081508;28;20557;-73
2022/01/19 14:08:52;;;;;;;10.55;2.78;;;23.30;27.40;;;;;;5075293;28;20205;-74
2022/01/19 14:11:25;;;;;;;7.03;2.50;;;21.80;28.50;;;;;;5082689;28;20250;-73
2022/01/19 14:14:02;;;;;;;9.35;3.55;;;20.40;30.00;;;;;;5082392;28;20192;-73
2022/01/19 14:16:35;;;;;;;7.72;3.40;;;20.00;30.80;;;;;;5083432;28;20229;-73
2022/01/19 14:19:09;;;;;;;7.88;3.30;;;21.40;29.80;;;;;;5082993;28;20185;-73
2022/01/19 14:22:05;;;;;;;8.98;3.65;;;21.80;29.00;;;;;;5073142;28;20440;-74
2022/01/19 14:24:49;;;;;;;11.35;4.22;;;22.20;28.00;;;;;;5078659;28;20192;-73
2022/01/19 14:27:46;;;;;;;12.80;3.55;;;21.50;29.00;;;;;;5073139;28;20261;-74
2022/01/19 14:30:28;;;;;;;7.40;3.03;;;21.70;28.10;;;;;;5081142;28;20509;-73
2022/01/19 14:32:59;;;;;;;8.77;2.40;;;21.60;28.20;;;;;;5077431;28;20186;-72
2022/01/19 14:35:33;;;;;;;6.97;2.50;;;21.10;28.00;;;;;;5078203;28;20228;-73